ISP weather

Long Island Mac Arthur Airport
Islip, New York, United States

Public forecast

Using degrees Fahrenheit for public forecast. Weather courtesy of forecast.io.

METAR (pilot weather report)

Retrieved 2019/09/22 11:22 UTC (10 minutes ago):

KISP 221122Z 00000KT 8SM CLR 15/15 A3016 RMK AO2 T01500150 $

TAF (pilot weather forecast)

Retrieved 2019/09/22 06:42 UTC (5 hours ago):

TAF KISP 220540Z 2206/2306 VRB02KT P6SM SKC FM221300 22006KT P6SM SKC FM221600 21009KT P6SM FEW050 FEW250 FM221800 20011G16KT P6SM FEW050 FEW250 FM222300 21009KT P6SM FEW050 FEW250